Terminal Aerodrome Forecast
Issued by NWS Memphis, TN

Home | Current Version | Previous Version | Text Only | Print | Product List | Glossary On
Versions: 1 2 3 4 5 6 7 8 9 10 11 12 13 14 15
257
FTUS44 KMEG 231726
TAFMKL
TAF
KMKL 231726Z 2318/2418 06004KT P6SM SCT050
     FM232300 00000KT P6SM SKC
      TEMPO 2408/2412 1SM BR
     FM241600 16004KT P6SM FEW050=

USA.gov is the U.S. government's official web portal to all federal, state and local government web resources and services.